createdAt,value
2023-03-31T00:01:11.606Z,2.00
2023-03-31T00:03:44.862Z,1.40
2023-03-31T00:06:18.646Z,1.85
2023-03-31T00:08:52.406Z,1.52
2023-03-31T00:11:22.021Z,1.70
2023-03-31T00:13:51.847Z,1.92
2023-03-31T00:16:21.168Z,1.30
2023-03-31T00:18:51.462Z,2.20
2023-03-31T00:21:29.904Z,1.20
2023-03-31T00:24:00.236Z,1.65
2023-03-31T00:26:28.706Z,3.75
2023-03-31T00:28:59.106Z,2.15
2023-03-31T00:31:28.275Z,1.52
2023-03-31T00:33:56.766Z,1.83
2023-03-31T00:36:28.758Z,1.92
2023-03-31T00:38:59.660Z,1.30
2023-03-31T00:41:29.319Z,2.40
2023-03-31T00:44:13.294Z,2.78
2023-03-31T00:46:45.910Z,2.10
2023-03-31T00:49:22.998Z,1.70
2023-03-31T00:51:55.460Z,1.60
2023-03-31T00:54:27.308Z,1.50
2023-03-31T00:57:06.999Z,2.20
2023-03-31T00:59:41.459Z,1.98
2023-03-31T01:02:11.690Z,1.45
2023-03-31T01:04:42.688Z,1.85
2023-03-31T01:07:18.544Z,1.55
2023-03-31T01:09:49.269Z,2.50
2023-03-31T01:12:20.368Z,2.15
2023-03-31T01:14:51.401Z,1.90
2023-03-31T01:17:22.445Z,1.73
2023-03-31T01:20:11.757Z,2.35
2023-03-31T01:23:16.381Z,2.00
2023-03-31T01:26:18.428Z,2.08
2023-03-31T01:28:54.916Z,2.10
2023-03-31T01:31:51.298Z,1.83
2023-03-31T01:34:58.470Z,1.60
2023-03-31T01:37:59.818Z,1.77
2023-03-31T01:40:45.286Z,1.90
2023-03-31T01:43:20.188Z,1.65
2023-03-31T01:45:58.771Z,1.80
2023-03-31T01:48:36.978Z,2.40
2023-03-31T01:51:14.083Z,2.05
2023-03-31T01:53:50.943Z,1.75
2023-03-31T01:56:27.053Z,2.13
2023-03-31T01:59:00.761Z,2.38
2023-03-31T02:01:37.473Z,2.00
2023-03-31T02:04:11.293Z,2.00
2023-03-31T02:06:44.277Z,2.45
2023-03-31T02:09:17.797Z,4.22
2023-03-31T02:11:49.667Z,2.00
2023-03-31T02:14:23.575Z,2.50
2023-03-31T02:16:58.657Z,3.08
2023-03-31T02:19:31.764Z,2.17
2023-03-31T02:22:01.709Z,2.00
2023-03-31T02:24:34.855Z,1.90
2023-03-31T02:27:08.927Z,2.00
2023-03-31T02:29:37.635Z,1.85
2023-03-31T02:32:14.788Z,1.70
2023-03-31T02:34:43.676Z,2.90
2023-03-31T02:37:12.823Z,2.17
2023-03-31T02:39:47.792Z,1.95
2023-03-31T02:42:17.858Z,2.08
2023-03-31T02:44:46.608Z,1.90
2023-03-31T02:47:18.277Z,2.40
2023-03-31T02:49:50.596Z,2.75
2023-03-31T02:52:41.381Z,3.17
2023-03-31T02:55:20.327Z,2.47
2023-03-31T02:58:19.939Z,3.15
2023-03-31T03:01:05.809Z,3.38
2023-03-31T03:03:44.432Z,2.90
2023-03-31T03:06:24.190Z,3.03
2023-03-31T03:09:23.959Z,3.13
2023-03-31T03:12:02.267Z,2.83
2023-03-31T03:14:37.109Z,2.50
2023-03-31T03:17:08.893Z,3.75
2023-03-31T03:19:37.550Z,3.95
2023-03-31T03:22:07.340Z,2.97
2023-03-31T03:24:37.339Z,3.40
2023-03-31T03:27:06.118Z,3.30
2023-03-31T03:29:35.899Z,3.40
2023-03-31T03:32:04.450Z,3.85
2023-03-31T03:34:32.877Z,3.78
2023-03-31T03:37:00.961Z,3.15
2023-03-31T03:39:29.179Z,2.92
2023-03-31T03:41:57.697Z,3.70
2023-03-31T03:44:25.963Z,3.42
2023-03-31T03:46:55.526Z,2.50
2023-03-31T03:49:23.687Z,4.15
2023-03-31T03:51:52.898Z,3.25
2023-03-31T03:54:21.057Z,3.88
2023-03-31T03:56:49.293Z,3.67
2023-03-31T03:59:17.710Z,3.85
2023-03-31T04:01:45.894Z,3.08
2023-03-31T04:04:15.458Z,3.55
2023-03-31T04:06:44.012Z,3.13
2023-03-31T04:09:12.666Z,4.38
2023-03-31T04:11:41.027Z,3.58
2023-03-31T04:14:09.720Z,4.47
2023-03-31T04:16:38.569Z,4.10
2023-03-31T04:19:08.523Z,5.03
2023-03-31T04:21:45.038Z,5.07
2023-03-31T04:24:21.707Z,4.50
2023-03-31T04:26:51.113Z,5.30
2023-03-31T04:29:22.619Z,5.45
2023-03-31T04:31:52.828Z,5.05
2023-03-31T04:34:22.310Z,4.35
2023-03-31T04:36:51.945Z,4.65
2023-03-31T04:39:26.656Z,3.95
2023-03-31T04:41:55.367Z,3.72
2023-03-31T04:44:23.578Z,4.40
2023-03-31T04:46:52.254Z,4.40
2023-03-31T04:49:20.367Z,3.53
2023-03-31T04:51:48.857Z,4.82
2023-03-31T04:54:18.555Z,5.07
2023-03-31T04:56:47.420Z,3.60
2023-03-31T04:59:15.785Z,4.18
2023-03-31T05:01:45.227Z,4.53
2023-03-31T05:04:13.825Z,4.22
2023-03-31T05:06:42.801Z,3.88
2023-03-31T05:09:10.866Z,5.07
2023-03-31T05:11:40.328Z,4.85
2023-03-31T05:14:08.802Z,4.93
2023-03-31T05:16:37.026Z,4.53
2023-03-31T05:19:05.665Z,3.90
2023-03-31T05:21:34.252Z,3.95
2023-03-31T05:24:03.273Z,3.42
2023-03-31T05:26:31.654Z,3.70
2023-03-31T05:29:01.692Z,3.22
2023-03-31T05:31:30.096Z,3.78
2023-03-31T05:33:58.190Z,4.25
2023-03-31T05:36:27.218Z,4.25
2023-03-31T05:38:55.991Z,3.47
2023-03-31T05:41:24.253Z,3.90
2023-03-31T05:43:52.986Z,5.07
2023-03-31T05:46:22.821Z,4.18
2023-03-31T05:48:51.027Z,5.63
2023-03-31T05:51:19.207Z,4.88
2023-03-31T05:57:44.206Z,4.38
2023-03-31T06:00:14.311Z,4.20
2023-03-31T06:02:44.129Z,6.05
2023-03-31T06:05:12.324Z,6.68
2023-03-31T06:07:40.618Z,6.65
2023-03-31T06:10:11.007Z,7.85
2023-03-31T06:12:40.384Z,5.80
2023-03-31T06:15:09.468Z,5.90
2023-03-31T06:17:38.792Z,5.32
2023-03-31T06:20:23.954Z,4.00
2023-03-31T06:22:55.299Z,3.90
2023-03-31T06:25:23.350Z,4.50
2023-03-31T06:27:51.867Z,3.42
2023-03-31T06:30:20.072Z,4.07
2023-03-31T06:32:48.979Z,3.60
2023-03-31T06:35:18.977Z,3.78
2023-03-31T06:37:47.078Z,4.00
2023-03-31T06:40:15.960Z,4.35
2023-03-31T06:42:44.602Z,4.15
2023-03-31T06:45:14.998Z,4.25
2023-03-31T06:47:43.498Z,4.20
2023-03-31T06:50:12.429Z,4.78
2023-03-31T06:52:42.099Z,7.00
2023-03-31T06:55:13.497Z,6.50
2023-03-31T06:57:41.959Z,5.95
2023-03-31T07:00:11.484Z,6.05
2023-03-31T07:02:39.710Z,5.40
2023-03-31T07:05:08.858Z,4.97
2023-03-31T07:07:37.441Z,5.95
2023-03-31T07:10:07.939Z,6.03
2023-03-31T07:12:36.512Z,6.55
2023-03-31T07:15:06.605Z,5.85
2023-03-31T07:17:35.467Z,6.18
2023-03-31T07:20:05.727Z,6.18
2023-03-31T07:22:34.129Z,4.28
2023-03-31T07:25:02.906Z,3.42
2023-03-31T07:27:32.466Z,3.10
2023-03-31T07:30:00.592Z,3.20
2023-03-31T07:32:29.495Z,3.75
2023-03-31T07:34:57.752Z,2.60
2023-03-31T07:37:26.641Z,3.42
2023-03-31T07:39:55.275Z,3.10
2023-03-31T07:42:23.798Z,3.33
2023-03-31T07:44:53.680Z,2.33
2023-03-31T07:47:21.941Z,2.85
2023-03-31T07:49:50.498Z,2.70
2023-03-31T07:52:19.920Z,3.20
2023-03-31T07:54:48.637Z,3.10
2023-03-31T07:57:19.377Z,2.60
2023-03-31T07:59:48.400Z,3.70
2023-03-31T08:02:19.042Z,4.80
2023-03-31T08:04:48.702Z,3.10
2023-03-31T08:07:18.055Z,3.45
2023-03-31T08:09:48.081Z,3.30
2023-03-31T08:12:16.860Z,3.85
2023-03-31T08:14:44.895Z,3.05
2023-03-31T08:17:13.612Z,2.97
2023-03-31T08:19:43.057Z,3.03
2023-03-31T08:22:11.160Z,2.78
2023-03-31T08:24:39.326Z,3.50
2023-03-31T08:27:11.959Z,3.05
2023-03-31T08:29:40.711Z,2.60
2023-03-31T08:32:09.143Z,3.75
2023-03-31T08:34:38.204Z,4.88
2023-03-31T08:37:07.932Z,3.05
2023-03-31T08:39:37.386Z,3.40
2023-03-31T08:42:13.956Z,2.78
2023-03-31T08:44:49.450Z,2.72
2023-03-31T08:47:21.493Z,3.38
2023-03-31T08:49:54.378Z,3.28
2023-03-31T08:52:31.081Z,3.55
2023-03-31T08:55:03.149Z,3.10
2023-03-31T08:57:36.907Z,3.83
2023-03-31T09:00:07.596Z,3.85
2023-03-31T09:02:49.021Z,3.35
2023-03-31T09:05:59.657Z,4.55
2023-03-31T09:08:39.250Z,3.30
2023-03-31T09:11:13.347Z,3.42
2023-03-31T09:14:06.293Z,3.60
2023-03-31T09:16:40.177Z,3.22
2023-03-31T09:19:14.932Z,3.72
2023-03-31T09:21:45.560Z,5.40
2023-03-31T09:24:21.107Z,3.92
2023-03-31T09:26:54.844Z,4.85
2023-03-31T09:29:29.662Z,3.87
2023-03-31T09:32:03.127Z,4.50
2023-03-31T09:34:34.969Z,4.53
2023-03-31T09:37:04.586Z,4.15
2023-03-31T09:39:34.637Z,3.53
2023-03-31T09:42:02.983Z,4.30
2023-03-31T09:44:38.558Z,3.60
2023-03-31T09:47:11.290Z,3.47
2023-03-31T09:49:41.885Z,3.60
2023-03-31T09:52:29.946Z,5.50
2023-03-31T09:55:02.964Z,4.05
2023-03-31T09:57:34.369Z,3.90
2023-03-31T10:00:16.839Z,4.15
2023-03-31T10:02:49.240Z,3.88
2023-03-31T10:05:32.431Z,4.72
2023-03-31T10:08:24.172Z,4.05
2023-03-31T10:10:55.891Z,4.85
2023-03-31T10:13:26.739Z,5.68
2023-03-31T10:15:57.263Z,6.43
2023-03-31T10:18:35.812Z,6.15
2023-03-31T10:21:06.599Z,7.70
2023-03-31T10:23:37.181Z,6.90
2023-03-31T10:26:06.913Z,8.20
2023-03-31T10:28:38.183Z,7.47
2023-03-31T10:31:08.712Z,8.00
2023-03-31T10:33:42.165Z,7.53
2023-03-31T10:36:20.465Z,7.35
2023-03-31T10:38:50.101Z,7.30
2023-03-31T10:41:23.805Z,6.38
2023-03-31T10:43:53.630Z,7.38
2023-03-31T10:46:22.871Z,6.18
2023-03-31T10:48:52.848Z,6.13
2023-03-31T10:51:22.884Z,4.70
2023-03-31T10:53:53.028Z,5.82
2023-03-31T10:56:36.279Z,5.68
2023-03-31T10:59:16.173Z,4.10
2023-03-31T11:02:02.151Z,4.93
2023-03-31T11:04:45.805Z,5.45
2023-03-31T11:07:28.649Z,3.88
2023-03-31T11:10:11.637Z,5.00
2023-03-31T11:12:50.555Z,3.92
2023-03-31T11:15:26.740Z,3.70
2023-03-31T11:18:07.996Z,4.20
2023-03-31T11:20:44.265Z,4.07
2023-03-31T11:23:22.423Z,3.65
2023-03-31T11:25:59.181Z,3.97
2023-03-31T11:28:47.776Z,4.80
2023-03-31T11:31:29.395Z,3.80
2023-03-31T11:34:16.373Z,4.88
2023-03-31T11:37:00.989Z,3.60
2023-03-31T11:39:41.565Z,4.13
2023-03-31T11:42:16.850Z,3.97
2023-03-31T11:44:53.059Z,4.53
2023-03-31T11:47:26.325Z,4.32
2023-03-31T11:49:59.144Z,4.30
2023-03-31T11:52:31.074Z,4.00
2023-03-31T11:55:05.024Z,4.22
2023-03-31T11:57:37.758Z,3.22
2023-03-31T12:00:20.848Z,3.58
2023-03-31T12:02:55.785Z,4.07
2023-03-31T12:05:28.094Z,4.50
2023-03-31T12:08:01.208Z,4.20
2023-03-31T12:10:35.737Z,4.72
2023-03-31T12:13:22.195Z,4.38
2023-03-31T12:16:01.499Z,4.05
2023-03-31T12:18:34.075Z,4.07
2023-03-31T12:21:06.171Z,4.63
2023-03-31T12:23:40.540Z,5.25
2023-03-31T12:26:18.620Z,4.95
2023-03-31T12:28:48.256Z,4.57
2023-03-31T12:31:24.605Z,4.60
2023-03-31T12:33:57.517Z,4.43
2023-03-31T12:36:46.307Z,4.43
2023-03-31T12:39:29.752Z,3.55
2023-03-31T12:42:17.069Z,4.25
2023-03-31T12:44:57.169Z,3.70
2023-03-31T12:47:57.824Z,3.75
2023-03-31T12:50:48.674Z,3.10
2023-03-31T12:53:26.740Z,3.58
2023-03-31T12:55:58.062Z,3.78
2023-03-31T12:58:44.469Z,3.50
2023-03-31T13:01:21.643Z,3.88
2023-03-31T13:04:09.767Z,3.75
2023-03-31T13:07:03.244Z,3.13
2023-03-31T13:09:52.968Z,3.78
2023-03-31T13:12:23.606Z,2.97
2023-03-31T13:14:54.583Z,3.10
2023-03-31T13:17:27.302Z,3.25
2023-03-31T13:20:13.457Z,3.47
2023-03-31T13:22:47.268Z,3.20
2023-03-31T13:25:47.058Z,3.70
2023-03-31T13:28:27.000Z,4.25
2023-03-31T13:30:57.896Z,3.85
2023-03-31T13:33:29.771Z,4.40
2023-03-31T13:36:17.038Z,3.60
2023-03-31T13:39:00.494Z,4.45
2023-03-31T13:41:43.518Z,3.85
2023-03-31T13:44:32.849Z,3.33
2023-03-31T13:47:28.982Z,3.50
2023-03-31T13:50:14.788Z,4.22
2023-03-31T13:52:54.433Z,3.50
2023-03-31T13:55:50.925Z,3.33
2023-03-31T13:58:35.128Z,3.25
2023-03-31T14:01:19.581Z,4.13
2023-03-31T14:03:59.940Z,3.90
2023-03-31T14:06:35.603Z,4.30
2023-03-31T14:09:09.239Z,3.60
2023-03-31T14:11:37.838Z,4.05
2023-03-31T14:14:15.703Z,3.83
2023-03-31T14:16:47.804Z,3.72
2023-03-31T14:19:52.965Z,4.95
2023-03-31T14:22:32.326Z,3.95
2023-03-31T14:25:13.984Z,5.25
2023-03-31T14:27:58.723Z,3.72
2023-03-31T14:30:42.463Z,3.90
2023-03-31T14:33:28.246Z,3.63
2023-03-31T14:36:01.901Z,4.15
2023-03-31T14:38:32.171Z,4.05
2023-03-31T14:41:02.085Z,3.50
2023-03-31T14:43:34.096Z,3.60
2023-03-31T14:46:03.406Z,3.30
2023-03-31T14:48:34.344Z,3.35
2023-03-31T14:51:04.217Z,3.15
2023-03-31T14:53:32.892Z,3.92
2023-03-31T14:56:07.675Z,3.13
2023-03-31T14:58:39.598Z,3.53
2023-03-31T15:01:10.825Z,3.78
2023-03-31T15:03:42.865Z,2.90
2023-03-31T15:06:12.439Z,3.45
2023-03-31T15:08:41.412Z,3.67
2023-03-31T15:11:17.841Z,3.78
2023-03-31T15:14:00.590Z,4.53
2023-03-31T15:16:38.095Z,4.00
2023-03-31T15:19:13.262Z,4.90
2023-03-31T15:21:41.888Z,4.28
2023-03-31T15:24:14.380Z,3.80
2023-03-31T15:26:50.536Z,3.90
2023-03-31T15:29:23.541Z,3.55
2023-03-31T15:31:52.099Z,3.28
2023-03-31T15:34:24.900Z,3.55
2023-03-31T15:36:56.465Z,4.82
2023-03-31T15:39:26.047Z,4.75
2023-03-31T15:41:57.293Z,3.47
2023-03-31T15:44:40.073Z,4.32
2023-03-31T15:47:14.982Z,4.63
2023-03-31T15:49:51.145Z,4.50
2023-03-31T15:52:30.157Z,4.25
2023-03-31T15:54:58.823Z,4.93
2023-03-31T15:57:35.612Z,3.97
2023-03-31T16:00:07.395Z,5.00
2023-03-31T16:02:47.048Z,4.15
2023-03-31T16:05:43.700Z,4.10
2023-03-31T16:08:24.412Z,3.83
2023-03-31T16:11:00.429Z,3.88
2023-03-31T16:13:32.894Z,3.72
2023-03-31T16:16:02.062Z,4.20
2023-03-31T16:18:35.880Z,4.28
2023-03-31T16:21:06.624Z,3.88
2023-03-31T16:23:38.849Z,3.40
2023-03-31T16:26:08.185Z,3.00
2023-03-31T16:28:39.153Z,3.67
2023-03-31T16:31:34.676Z,3.40
2023-03-31T16:34:04.622Z,3.60
2023-03-31T16:36:32.834Z,3.63
2023-03-31T16:39:03.737Z,4.22
2023-03-31T16:41:33.499Z,4.13
2023-03-31T16:44:02.545Z,3.85
2023-03-31T16:46:32.187Z,3.42
2023-03-31T16:49:00.719Z,4.50
2023-03-31T16:51:28.885Z,4.20
2023-03-31T16:53:59.276Z,6.88
2023-03-31T16:56:27.971Z,6.40
2023-03-31T16:58:56.501Z,5.82
2023-03-31T17:01:24.925Z,6.80
2023-03-31T17:03:55.273Z,7.63
2023-03-31T17:06:23.961Z,5.90
2023-03-31T17:08:52.347Z,4.88
2023-03-31T17:11:21.555Z,5.40
2023-03-31T17:14:15.702Z,6.05
2023-03-31T17:16:48.379Z,4.57
2023-03-31T17:20:08.159Z,4.57
2023-03-31T17:22:38.730Z,5.22
2023-03-31T17:25:08.554Z,4.97
2023-03-31T17:27:37.644Z,4.97
2023-03-31T17:30:08.680Z,4.63
2023-03-31T17:32:38.092Z,3.95
2023-03-31T17:35:07.692Z,3.72
2023-03-31T17:37:38.669Z,4.65
2023-03-31T17:40:07.977Z,4.97
2023-03-31T17:42:36.791Z,3.88
2023-03-31T17:45:06.929Z,3.78
2023-03-31T17:47:34.891Z,4.50
2023-03-31T17:50:24.503Z,3.15
2023-03-31T17:52:55.792Z,3.40
2023-03-31T17:55:24.822Z,3.42
2023-03-31T17:57:53.146Z,3.72
2023-03-31T18:00:21.880Z,2.70
2023-03-31T18:02:51.330Z,2.33
2023-03-31T18:05:20.316Z,2.50
2023-03-31T18:07:48.954Z,1.95
2023-03-31T18:10:18.898Z,2.05
2023-03-31T18:12:47.991Z,1.85
2023-03-31T18:15:16.765Z,1.52
2023-03-31T18:17:44.723Z,1.63
2023-03-31T18:20:14.143Z,1.60
2023-03-31T18:22:43.368Z,1.35
2023-03-31T18:25:12.062Z,3.10
2023-03-31T18:27:47.388Z,2.50
2023-03-31T18:30:15.959Z,3.20
2023-03-31T18:32:44.071Z,2.85
2023-03-31T18:35:12.415Z,3.10
2023-03-31T18:37:40.623Z,2.90
2023-03-31T18:40:10.893Z,2.75
2023-03-31T18:42:40.364Z,2.30
2023-03-31T18:45:10.719Z,3.10
2023-03-31T18:47:39.267Z,2.90
2023-03-31T18:50:09.433Z,3.22
2023-03-31T18:52:37.908Z,3.10
2023-03-31T18:55:06.815Z,2.55
2023-03-31T18:57:35.105Z,1.85
2023-03-31T19:00:04.021Z,2.00
2023-03-31T19:02:34.050Z,2.05
2023-03-31T19:05:02.770Z,1.83
2023-03-31T19:07:32.421Z,1.95
2023-03-31T19:10:00.504Z,1.77
2023-03-31T19:12:28.679Z,1.95
2023-03-31T19:14:57.254Z,1.73
2023-03-31T19:17:25.721Z,3.20
2023-03-31T19:19:55.461Z,1.63
2023-03-31T19:22:25.333Z,2.17
2023-03-31T19:24:53.587Z,2.10
2023-03-31T19:27:22.013Z,1.83
2023-03-31T19:29:50.435Z,1.67
2023-03-31T19:32:19.092Z,2.22
2023-03-31T19:34:47.686Z,1.85
2023-03-31T19:37:17.379Z,2.08
2023-03-31T19:39:45.533Z,3.10
2023-03-31T19:42:15.134Z,2.60
2023-03-31T19:44:44.621Z,2.03
2023-03-31T19:47:12.978Z,1.88
2023-03-31T19:49:41.780Z,1.67
2023-03-31T19:52:09.821Z,2.17
2023-03-31T19:54:40.009Z,2.05
2023-03-31T19:57:09.108Z,2.10
2023-03-31T19:59:37.397Z,2.17
2023-03-31T20:02:06.846Z,1.50
2023-03-31T20:04:35.891Z,2.42
2023-03-31T20:07:04.933Z,2.25
2023-03-31T20:09:33.325Z,2.25
2023-03-31T20:12:03.041Z,1.83
2023-03-31T20:14:31.261Z,2.13
2023-03-31T20:17:01.208Z,3.00
2023-03-31T20:19:29.742Z,1.98
2023-03-31T20:21:58.038Z,1.50
2023-03-31T20:24:27.506Z,1.50
2023-03-31T20:26:56.075Z,1.63
2023-03-31T20:29:26.244Z,1.60
2023-03-31T20:31:54.877Z,2.00
2023-03-31T20:34:23.550Z,1.25
2023-03-31T20:36:52.939Z,2.00
2023-03-31T20:39:21.791Z,1.60
2023-03-31T20:41:51.255Z,1.48
2023-03-31T20:44:19.490Z,1.55
2023-03-31T20:46:48.979Z,1.92
2023-03-31T20:49:17.183Z,2.03
2023-03-31T20:51:47.116Z,1.92
2023-03-31T20:54:15.239Z,1.63
2023-03-31T20:56:43.419Z,1.52
2023-03-31T20:59:15.017Z,1.65
2023-03-31T21:01:47.374Z,1.50
2023-03-31T21:04:18.148Z,1.50
2023-03-31T21:06:48.314Z,1.92
2023-03-31T21:09:17.482Z,1.88
2023-03-31T21:11:46.149Z,1.95
2023-03-31T21:14:16.584Z,1.33
2023-03-31T21:16:45.250Z,1.92
2023-03-31T21:19:13.555Z,1.92
2023-03-31T21:21:43.359Z,1.92
2023-03-31T21:24:13.334Z,3.30
2023-03-31T21:26:41.576Z,1.52
2023-03-31T21:29:10.007Z,1.75
2023-03-31T21:31:38.304Z,1.90
2023-03-31T21:34:07.141Z,1.60
2023-03-31T21:36:35.434Z,1.90
2023-03-31T21:39:05.569Z,2.05
2023-03-31T21:41:33.987Z,3.10
2023-03-31T21:44:03.319Z,1.48
2023-03-31T21:46:33.762Z,1.42
2023-03-31T21:49:02.653Z,1.92
2023-03-31T21:51:31.058Z,1.75
2023-03-31T21:53:59.602Z,2.00
2023-03-31T21:56:31.941Z,1.25
2023-03-31T21:59:01.335Z,2.15
2023-03-31T22:01:29.479Z,1.45
2023-03-31T22:03:57.625Z,1.98
2023-03-31T22:06:26.469Z,1.85
2023-03-31T22:08:54.730Z,2.00
2023-03-31T22:11:23.901Z,1.80
2023-03-31T22:13:53.990Z,2.72
2023-03-31T22:16:26.983Z,1.65
2023-03-31T22:18:55.815Z,1.40
2023-03-31T22:21:41.039Z,2.05
2023-03-31T22:24:12.821Z,1.98
2023-03-31T22:26:41.087Z,2.00
2023-03-31T22:29:15.503Z,2.28
2023-03-31T22:31:43.633Z,1.52
2023-03-31T22:34:12.057Z,1.30
2023-03-31T22:36:40.618Z,2.05
2023-03-31T22:39:10.367Z,1.95
2023-03-31T22:41:38.791Z,1.25
2023-03-31T22:44:07.121Z,2.17
2023-03-31T22:46:37.813Z,1.45
2023-03-31T22:49:06.706Z,1.83
2023-03-31T22:51:35.857Z,2.00
2023-03-31T22:54:04.250Z,2.20
2023-03-31T22:56:32.608Z,1.80
2023-03-31T22:59:01.131Z,1.63
2023-03-31T23:01:29.945Z,2.17
2023-03-31T23:04:00.655Z,2.35
2023-03-31T23:06:29.395Z,2.28
2023-03-31T23:08:58.302Z,2.65
2023-03-31T23:11:27.644Z,2.63
2023-03-31T23:13:55.923Z,2.38
2023-03-31T23:16:27.212Z,2.67
2023-03-31T23:18:56.346Z,3.10
2023-03-31T23:21:28.480Z,3.35
2023-03-31T23:23:58.776Z,2.20
2023-03-31T23:26:28.060Z,2.80
2023-03-31T23:28:57.462Z,3.30
2023-03-31T23:31:27.680Z,2.65
2023-03-31T23:33:56.382Z,2.28
2023-03-31T23:36:26.275Z,2.58
2023-03-31T23:38:56.125Z,2.15
2023-03-31T23:41:33.774Z,2.30
2023-03-31T23:44:02.370Z,2.38
2023-03-31T23:46:32.027Z,2.38
2023-03-31T23:49:02.682Z,2.10
2023-03-31T23:51:32.493Z,1.90
2023-03-31T23:54:00.955Z,1.98
2023-03-31T23:56:29.533Z,2.45
2023-03-31T23:58:57.742Z,2.20
